createdAt,value
2022-10-20T00:00:47.937Z,4.6
2022-10-20T00:01:51.966Z,4.6
2022-10-20T00:02:53.987Z,4.7
2022-10-20T00:03:56.921Z,4.8
2022-10-20T00:04:58.909Z,4.8
2022-10-20T00:06:00.910Z,4.9
2022-10-20T00:07:02.965Z,4.9
2022-10-20T00:08:04.914Z,5
2022-10-20T00:09:06.983Z,5
2022-10-20T00:10:08.914Z,5.1
2022-10-20T00:11:10.913Z,5.1
2022-10-20T00:12:12.971Z,5.1
2022-10-20T00:13:14.943Z,5.2
2022-10-20T00:14:16.919Z,5.2
2022-10-20T00:15:18.926Z,5.2
2022-10-20T00:16:20.944Z,5.3
2022-10-20T00:17:22.939Z,5.3
2022-10-20T00:18:24.926Z,5.3
2022-10-20T00:19:26.920Z,5.3
2022-10-20T00:20:28.929Z,5.3
2022-10-20T00:21:30.921Z,5.3
2022-10-20T00:22:33.098Z,5.4
2022-10-20T00:23:34.957Z,5.4
2022-10-20T00:24:36.947Z,5.4
2022-10-20T00:25:38.928Z,5.4
2022-10-20T00:26:40.948Z,5.4
2022-10-20T00:27:42.929Z,5.4
2022-10-20T00:28:44.948Z,5.3
2022-10-20T00:29:47.936Z,5.3
2022-10-20T00:30:50.960Z,5.3
2022-10-20T00:31:52.929Z,5.3
2022-10-20T00:32:54.931Z,5.3
2022-10-20T00:33:56.978Z,5.3
2022-10-20T00:34:58.933Z,5.2
2022-10-20T00:36:00.967Z,5.2
2022-10-20T00:37:02.985Z,5.2
2022-10-20T00:38:05.980Z,5.2
2022-10-20T00:39:07.934Z,5.3
2022-10-20T00:40:09.945Z,5.2
2022-10-20T00:41:11.940Z,5.3
2022-10-20T00:42:13.945Z,5.3
2022-10-20T00:43:15.938Z,5.3
2022-10-20T00:44:17.957Z,5.3
2022-10-20T00:45:19.941Z,5.3
2022-10-20T00:46:21.948Z,5.4
2022-10-20T00:47:23.942Z,5.4
2022-10-20T00:48:25.942Z,5.4
2022-10-20T00:49:27.972Z,5.4
2022-10-20T00:50:29.963Z,5.4
2022-10-20T00:51:31.947Z,5.4
2022-10-20T00:52:34.232Z,5.5
2022-10-20T00:53:35.951Z,5.5
2022-10-20T00:54:37.966Z,5.5
2022-10-20T00:55:39.948Z,5.5
2022-10-20T00:56:41.969Z,5.5
2022-10-20T00:57:43.948Z,5.5
2022-10-20T00:58:45.947Z,5.5
2022-10-20T00:59:48.003Z,5.5
2022-10-20T01:00:51.952Z,5.6
2022-10-20T01:01:54.033Z,5.5
2022-10-20T01:02:55.958Z,5.6
2022-10-20T01:03:57.957Z,5.6
2022-10-20T01:04:59.989Z,5.6
2022-10-20T01:06:01.982Z,5.5
2022-10-20T01:07:03.952Z,5.5
2022-10-20T01:08:05.959Z,5.5
2022-10-20T01:09:08.015Z,5.5
2022-10-20T01:10:09.993Z,5.4
2022-10-20T01:11:11.989Z,5.4
2022-10-20T01:12:13.959Z,5.4
2022-10-20T01:13:15.959Z,5.4
2022-10-20T01:14:18.962Z,5.4
2022-10-20T01:15:21.053Z,5.4
2022-10-20T01:16:22.983Z,5.4
2022-10-20T01:17:25.003Z,5.4
2022-10-20T01:18:26.959Z,5.4
2022-10-20T01:19:28.960Z,5.4
2022-10-20T01:20:31.014Z,5.4
2022-10-20T01:21:32.966Z,5.4
2022-10-20T01:22:35.002Z,5.4
2022-10-20T01:23:37.965Z,5.3
2022-10-20T01:24:39.972Z,5.3
2022-10-20T01:25:42.005Z,5.3
2022-10-20T01:26:44.007Z,5.3
2022-10-20T01:27:46.007Z,5.2
2022-10-20T01:28:47.990Z,5.2
2022-10-20T01:29:51.979Z,5.3
2022-10-20T01:30:53.969Z,5.2
2022-10-20T01:31:55.969Z,5.3
2022-10-20T01:32:57.994Z,5.3
2022-10-20T01:33:59.974Z,5.3
2022-10-20T01:35:01.970Z,5.3
2022-10-20T01:36:03.975Z,5.2
2022-10-20T01:37:06.186Z,5.2
2022-10-20T01:38:08.980Z,5.3
2022-10-20T01:39:10.975Z,5.3
2022-10-20T01:40:12.976Z,5.3
2022-10-20T01:41:15.006Z,5.4
2022-10-20T01:42:17.020Z,5.4
2022-10-20T01:43:18.977Z,5.4
2022-10-20T01:44:20.979Z,5.4
2022-10-20T01:45:22.983Z,5.4
2022-10-20T01:46:24.982Z,5.3
2022-10-20T01:47:27.006Z,5.3
2022-10-20T01:48:28.981Z,5.3
2022-10-20T01:49:30.984Z,5.3
2022-10-20T01:50:33.036Z,5.3
2022-10-20T01:51:35.035Z,5.4
2022-10-20T01:52:37.232Z,5.4
2022-10-20T01:53:38.992Z,5.3
2022-10-20T01:54:40.988Z,5.3
2022-10-20T01:55:43.047Z,5.3
2022-10-20T01:56:44.990Z,5.3
2022-10-20T01:57:48.006Z,5.3
2022-10-20T01:58:51.028Z,5.3
2022-10-20T01:59:52.992Z,5.3
2022-10-20T02:01:57.022Z,5.3
2022-10-20T02:02:58.995Z,5.3
2022-10-20T02:04:01.029Z,5.3
2022-10-20T02:05:03.000Z,5.3
2022-10-20T02:06:04.996Z,5.3
2022-10-20T02:07:06.999Z,5.3
2022-10-20T02:08:09.996Z,5.3
2022-10-20T02:09:12.013Z,5.3
2022-10-20T02:10:14.033Z,5.2
2022-10-20T02:11:15.994Z,5.2
2022-10-20T02:12:18.006Z,5.3
2022-10-20T02:13:20.046Z,5.3
2022-10-20T02:14:22.044Z,5.3
2022-10-20T02:15:25.017Z,5.3
2022-10-20T02:16:27.034Z,5.4
2022-10-20T02:17:29.001Z,5.4
2022-10-20T02:18:31.005Z,5.4
2022-10-20T02:19:33.006Z,5.4
2022-10-20T02:20:35.030Z,5.4
2022-10-20T02:21:37.008Z,5.4
2022-10-20T02:22:39.280Z,5.4
2022-10-20T02:23:41.062Z,5.4
2022-10-20T02:24:44.006Z,5.4
2022-10-20T02:25:46.015Z,5.4
2022-10-20T02:26:48.022Z,5.4
2022-10-20T02:27:52.027Z,5.4
2022-10-20T02:28:54.046Z,5.4
2022-10-20T02:29:56.050Z,5.4
2022-10-20T02:30:58.041Z,5.4
2022-10-20T02:32:00.011Z,5.4
2022-10-20T02:33:02.016Z,5.4
2022-10-20T02:34:04.013Z,5.4
2022-10-20T02:35:06.777Z,5.3
2022-10-20T02:36:08.047Z,5.4
2022-10-20T02:37:11.069Z,5.4
2022-10-20T02:38:13.016Z,5.3
2022-10-20T02:39:15.013Z,5.4
2022-10-20T02:40:17.046Z,5.4
2022-10-20T02:41:19.046Z,5.4
2022-10-20T02:42:21.031Z,5.4
2022-10-20T02:43:23.022Z,5.4
2022-10-20T02:44:25.017Z,5.4
2022-10-20T02:45:27.070Z,5.4
2022-10-20T02:46:29.016Z,5.4
2022-10-20T02:47:31.129Z,5.4
2022-10-20T02:48:33.026Z,5.4
2022-10-20T02:49:35.020Z,5.3
2022-10-20T02:50:37.018Z,5.3
2022-10-20T02:51:39.029Z,5.3
2022-10-20T02:52:41.023Z,5.3
2022-10-20T02:53:43.050Z,5.3
2022-10-20T02:54:45.021Z,5.3
2022-10-20T02:55:48.052Z,5.4
2022-10-20T02:56:51.028Z,5.3
2022-10-20T02:57:53.023Z,5.4
2022-10-20T02:58:55.051Z,5.3
2022-10-20T02:59:57.029Z,5.3
2022-10-20T03:00:59.090Z,5.3
2022-10-20T03:02:01.151Z,5.4
2022-10-20T03:03:03.042Z,5.4
2022-10-20T03:04:05.073Z,5.3
2022-10-20T03:05:07.063Z,5.3
2022-10-20T03:06:09.037Z,5.3
2022-10-20T03:07:12.057Z,5.3
2022-10-20T03:08:14.084Z,5.3
2022-10-20T03:09:16.041Z,5.3
2022-10-20T03:10:18.042Z,5.2
2022-10-20T03:11:20.036Z,5.3
2022-10-20T03:12:22.077Z,5.3
2022-10-20T03:13:24.112Z,5.4
2022-10-20T03:14:26.073Z,5.4
2022-10-20T03:15:28.038Z,5.4
2022-10-20T03:16:30.036Z,5.4
2022-10-20T03:17:32.036Z,5.4
2022-10-20T03:18:35.047Z,5.4
2022-10-20T03:19:37.093Z,5.4
2022-10-20T03:20:39.052Z,5.4
2022-10-20T03:21:41.054Z,5.4
2022-10-20T03:22:43.051Z,5.4
2022-10-20T03:23:45.048Z,5.3
2022-10-20T03:24:48.118Z,5.4
2022-10-20T03:25:51.042Z,5.3
2022-10-20T03:26:53.050Z,5.3
2022-10-20T03:27:55.056Z,5.3
2022-10-20T03:28:57.035Z,5.3
2022-10-20T03:29:59.087Z,5.3
2022-10-20T03:31:01.047Z,5.3
2022-10-20T03:32:03.058Z,5.3
2022-10-20T03:33:05.056Z,5.3
2022-10-20T03:34:07.055Z,5.3
2022-10-20T03:35:09.123Z,5.3
2022-10-20T03:36:11.059Z,5.4
2022-10-20T03:37:13.057Z,5.3
2022-10-20T03:38:15.055Z,5.3
2022-10-20T03:39:17.063Z,5.3
2022-10-20T03:40:19.101Z,5.3
2022-10-20T03:41:21.076Z,5.3
2022-10-20T03:42:24.059Z,5.3
2022-10-20T03:43:26.062Z,5.3
2022-10-20T03:44:28.054Z,5.3
2022-10-20T03:45:30.094Z,5.3
2022-10-20T03:46:32.057Z,5.2
2022-10-20T03:47:34.086Z,5.2
2022-10-20T03:48:36.074Z,5.2
2022-10-20T03:49:38.062Z,5.3
2022-10-20T03:50:40.081Z,5.3
2022-10-20T03:51:42.064Z,5.3
2022-10-20T03:52:44.068Z,5.3
2022-10-20T03:53:46.105Z,5.3
2022-10-20T03:54:48.091Z,5.3
2022-10-20T03:55:52.066Z,5.3
2022-10-20T03:56:54.066Z,5.3
2022-10-20T03:57:56.073Z,5.3
2022-10-20T03:58:59.136Z,5.3
2022-10-20T04:00:01.110Z,5.3
2022-10-20T04:01:03.073Z,5.2
2022-10-20T04:02:05.143Z,5.2
2022-10-20T04:03:07.068Z,5.2
2022-10-20T04:04:09.074Z,5.2
2022-10-20T04:05:11.082Z,5.1
2022-10-20T04:06:13.079Z,5.1
2022-10-20T04:07:15.095Z,5.1
2022-10-20T04:08:17.083Z,5.1
2022-10-20T04:09:19.136Z,5
2022-10-20T04:10:21.074Z,5
2022-10-20T04:11:23.081Z,5
2022-10-20T04:12:25.097Z,4.9
2022-10-20T04:13:27.098Z,5
2022-10-20T04:14:29.079Z,5
2022-10-20T04:15:31.088Z,4.9
2022-10-20T04:16:33.142Z,4.9
2022-10-20T04:17:35.150Z,4.9
2022-10-20T04:18:37.089Z,4.9
2022-10-20T04:19:39.087Z,4.9
2022-10-20T04:20:44.320Z,4.9
2022-10-20T04:21:43.112Z,4.9
2022-10-20T04:22:45.100Z,4.9
2022-10-20T04:23:48.121Z,4.9
2022-10-20T04:24:51.133Z,4.9
2022-10-20T04:25:53.090Z,4.9
2022-10-20T04:26:55.145Z,4.9
2022-10-20T04:27:57.093Z,4.8
2022-10-20T04:28:59.124Z,4.8
2022-10-20T04:30:01.090Z,4.7
2022-10-20T04:31:03.092Z,4.6
2022-10-20T04:32:05.318Z,4.6
2022-10-20T04:33:07.093Z,4.6
2022-10-20T04:34:09.149Z,4.5
2022-10-20T04:35:11.102Z,4.5
2022-10-20T04:36:13.115Z,4.4
2022-10-20T04:37:15.163Z,4.4
2022-10-20T04:38:17.098Z,4.4
2022-10-20T04:39:19.101Z,4.4
2022-10-20T04:40:21.094Z,4.3
2022-10-20T04:41:23.102Z,4.3
2022-10-20T04:42:25.167Z,4.3
2022-10-20T04:43:27.098Z,4.2
2022-10-20T04:44:29.106Z,4.2
2022-10-20T04:45:31.110Z,4.2
2022-10-20T04:46:33.180Z,4.2
2022-10-20T04:47:35.496Z,4.1
2022-10-20T04:48:37.214Z,4.1
2022-10-20T04:49:39.109Z,4.1
2022-10-20T04:50:42.136Z,4.1
2022-10-20T04:51:44.151Z,4.1
2022-10-20T04:52:46.107Z,4.1
2022-10-20T04:53:48.119Z,4.1
2022-10-20T04:54:52.107Z,4.1
2022-10-20T04:55:54.112Z,4.1
2022-10-20T04:56:56.165Z,4.1
2022-10-20T04:57:58.112Z,4.1
2022-10-20T04:59:00.144Z,4.1
2022-10-20T05:00:02.121Z,4.1
2022-10-20T05:01:04.108Z,4.1
2022-10-20T05:02:06.185Z,4.1
2022-10-20T05:03:08.237Z,4
2022-10-20T05:04:10.152Z,4
2022-10-20T05:05:12.123Z,4
2022-10-20T05:06:14.143Z,3.9
2022-10-20T05:07:16.143Z,3.9
2022-10-20T05:08:18.122Z,3.9
2022-10-20T05:09:20.142Z,3.9
2022-10-20T05:10:22.145Z,3.9
2022-10-20T05:11:24.115Z,3.9
2022-10-20T05:12:26.114Z,3.9
2022-10-20T05:13:28.136Z,3.9
2022-10-20T05:14:30.121Z,3.9
2022-10-20T05:15:32.209Z,4
2022-10-20T05:16:34.134Z,4
2022-10-20T05:17:36.123Z,4.1
2022-10-20T05:18:38.119Z,4.1
2022-10-20T05:19:40.126Z,4.1
2022-10-20T05:21:07.268Z,4.1
2022-10-20T05:21:44.125Z,4.2
2022-10-20T05:22:46.123Z,4.2
2022-10-20T05:23:52.129Z,4.2
2022-10-20T05:24:54.130Z,4.2
2022-10-20T05:25:56.134Z,4.2
2022-10-20T05:26:58.138Z,4.3
2022-10-20T05:28:00.134Z,4.2
2022-10-20T05:29:02.130Z,4.2
2022-10-20T05:30:04.131Z,4.3
2022-10-20T05:31:06.163Z,4.3
2022-10-20T05:32:08.128Z,4.3
2022-10-20T05:33:10.180Z,4.3
2022-10-20T05:34:13.130Z,4.3
2022-10-20T05:35:15.146Z,4.3
2022-10-20T05:36:19.473Z,4.4
2022-10-20T05:37:23.137Z,4.4
2022-10-20T05:38:22.142Z,4.4
2022-10-20T05:39:25.140Z,4.4
2022-10-20T05:40:27.169Z,4.4
2022-10-20T05:41:31.149Z,4.4
2022-10-20T05:42:31.141Z,4.4
2022-10-20T05:43:33.137Z,4.4
2022-10-20T05:44:35.147Z,4.4
2022-10-20T05:45:37.149Z,4.4
2022-10-20T05:46:39.171Z,4.5
2022-10-20T05:47:42.153Z,4.5
2022-10-20T05:48:44.382Z,4.5
2022-10-20T05:49:46.149Z,4.6
2022-10-20T05:50:48.224Z,4.6
2022-10-20T05:51:51.169Z,4.6
2022-10-20T05:52:53.169Z,4.6
2022-10-20T05:53:55.155Z,4.7
2022-10-20T05:54:57.152Z,4.7
2022-10-20T05:55:59.151Z,4.7
2022-10-20T05:57:01.198Z,4.7
2022-10-20T05:58:03.148Z,4.8
2022-10-20T05:59:05.155Z,4.8
2022-10-20T06:00:07.169Z,4.8
2022-10-20T06:01:09.147Z,4.8
2022-10-20T06:02:35.949Z,4.8
2022-10-20T06:03:35.551Z,4.9
2022-10-20T06:04:35.518Z,4.9
2022-10-20T06:05:35.517Z,4.8
2022-10-20T06:06:35.545Z,4.9
2022-10-20T06:07:35.537Z,4.9
2022-10-20T06:08:35.619Z,4.9
2022-10-20T06:09:35.527Z,5
2022-10-20T06:10:35.593Z,5
2022-10-20T06:11:39.277Z,5
2022-10-20T06:12:35.722Z,5
2022-10-20T06:13:35.524Z,5
2022-10-20T06:14:35.517Z,5.1
2022-10-20T06:16:39.250Z,5.1
2022-10-20T06:17:43.225Z,5.1
2022-10-20T06:18:46.205Z,5.1
2022-10-20T06:19:48.209Z,5.2
2022-10-20T06:20:50.248Z,5.1
2022-10-20T06:26:01.025Z,5.1
2022-10-20T06:33:13.459Z,5.2
2022-10-20T06:38:23.225Z,5.3
2022-10-20T06:39:30.071Z,5.3
2022-10-20T06:40:32.093Z,5.4
2022-10-20T06:44:43.633Z,5.6
2022-10-20T06:45:45.614Z,5.6
2022-10-20T06:46:47.603Z,5.6
2022-10-20T06:47:49.614Z,5.7
2022-10-20T06:48:56.285Z,5.7
2022-10-20T06:49:53.634Z,5.7
2022-10-20T06:50:55.625Z,5.8
2022-10-20T06:51:57.679Z,5.8
2022-10-20T06:52:59.605Z,5.8
2022-10-20T06:54:01.650Z,5.8
2022-10-20T06:55:03.687Z,5.8
2022-10-20T06:56:05.608Z,5.9
2022-10-20T06:57:07.646Z,5.9
2022-10-20T06:58:09.599Z,5.9
2022-10-20T06:59:11.618Z,5.9
2022-10-20T07:00:13.644Z,5.9
2022-10-20T07:02:35.900Z,6
2022-10-20T07:03:35.581Z,6
2022-10-20T07:04:35.559Z,6.1
2022-10-20T07:05:35.559Z,6.1
2022-10-20T07:06:35.562Z,6.1
2022-10-20T07:08:35.688Z,6.2
2022-10-20T07:09:35.591Z,6.2
2022-10-20T07:10:35.704Z,6.2
2022-10-20T07:11:37.523Z,6.2
2022-10-20T07:12:39.729Z,6.2
2022-10-20T07:13:41.584Z,6.2
2022-10-20T07:15:45.520Z,6.3
2022-10-20T07:16:47.533Z,6.4
2022-10-20T07:18:36.613Z,6.4
2022-10-20T07:19:35.568Z,6.4
2022-10-20T07:20:35.593Z,6.4
2022-10-20T07:21:36.793Z,6.5
2022-10-20T07:22:35.873Z,6.5
2022-10-20T07:24:02.546Z,6.5
2022-10-20T07:25:04.566Z,6.5
2022-10-20T07:26:06.510Z,6.5
2022-10-20T07:27:08.517Z,6.6
2022-10-20T07:28:10.531Z,6.6
2022-10-20T07:29:13.557Z,6.6
2022-10-20T07:30:16.554Z,6.6
2022-10-20T07:31:18.522Z,6.6
2022-10-20T07:32:20.522Z,6.6
2022-10-20T07:33:35.312Z,6.7
2022-10-20T07:34:26.915Z,6.7
2022-10-20T07:35:26.555Z,6.7
2022-10-20T07:36:30.204Z,6.7
2022-10-20T07:37:30.527Z,6.7
2022-10-20T07:38:32.521Z,6.7
2022-10-20T07:39:34.527Z,6.8
2022-10-20T07:40:36.628Z,6.8
2022-10-20T07:41:38.536Z,6.8
2022-10-20T07:42:40.527Z,6.9
2022-10-20T07:43:42.530Z,6.9
2022-10-20T07:44:44.536Z,6.9
2022-10-20T07:45:46.983Z,6.9
2022-10-20T07:46:48.527Z,6.9
2022-10-20T07:47:50.533Z,6.9
2022-10-20T07:48:52.526Z,6.9
2022-10-20T07:49:54.535Z,7
2022-10-20T07:50:56.553Z,7
2022-10-20T07:51:58.536Z,7
2022-10-20T07:53:00.536Z,7
2022-10-20T07:54:02.584Z,7.1
2022-10-20T07:55:17.892Z,7
2022-10-20T07:56:06.595Z,7.1
2022-10-20T07:57:08.541Z,7.1
2022-10-20T07:58:10.538Z,7.1
2022-10-20T07:59:13.635Z,7.1
2022-10-20T08:00:16.542Z,7.1
2022-10-20T08:01:18.631Z,7.1
2022-10-20T08:02:20.654Z,7.2
2022-10-20T08:03:22.542Z,7.2
2022-10-20T08:04:24.542Z,7.2
2022-10-20T08:05:26.593Z,7.2
2022-10-20T08:06:28.553Z,7.2
2022-10-20T08:07:30.544Z,7.2
2022-10-20T08:08:32.591Z,7.2
2022-10-20T08:09:34.622Z,7.2
2022-10-20T08:10:36.578Z,7.3
2022-10-20T08:11:38.549Z,7.3
2022-10-20T08:12:40.564Z,7.3
2022-10-20T08:13:42.639Z,7.4
2022-10-20T08:14:44.546Z,7.4
2022-10-20T08:15:46.582Z,7.4
2022-10-20T08:16:48.827Z,7.5
2022-10-20T08:17:50.555Z,7.5
2022-10-20T08:18:54.582Z,7.5
2022-10-20T08:19:57.586Z,7.5
2022-10-20T08:20:56.549Z,7.6
2022-10-20T08:21:58.552Z,7.6
2022-10-20T08:23:00.572Z,7.6
2022-10-20T08:24:02.588Z,7.7
2022-10-20T08:25:04.553Z,7.7
2022-10-20T08:26:10.637Z,7.7
2022-10-20T08:27:08.597Z,7.8
2022-10-20T08:28:10.573Z,7.8
2022-10-20T08:29:13.625Z,7.9
2022-10-20T08:30:23.981Z,7.9
2022-10-20T08:31:19.559Z,7.9
2022-10-20T08:32:21.568Z,8
2022-10-20T08:33:23.569Z,8
2022-10-20T08:34:25.565Z,8
2022-10-20T08:35:27.565Z,8.1
2022-10-20T08:36:29.560Z,8.1
2022-10-20T08:37:31.560Z,8.2
2022-10-20T08:38:33.606Z,8.2
2022-10-20T08:39:35.569Z,8.3
2022-10-20T08:42:06.540Z,8.4
2022-10-20T08:42:42.571Z,8.5
2022-10-20T08:43:44.586Z,8.5
2022-10-20T08:44:46.574Z,8.5
2022-10-20T08:45:48.915Z,8.6
2022-10-20T08:46:50.577Z,8.7
2022-10-20T08:47:52.578Z,8.7
2022-10-20T08:48:54.574Z,8.8
2022-10-20T08:49:56.630Z,8.8
2022-10-20T08:50:58.569Z,8.9
2022-10-20T08:52:00.600Z,9
2022-10-20T08:53:02.578Z,9
2022-10-20T08:54:04.586Z,9.1
2022-10-20T08:55:06.624Z,9.2
2022-10-20T08:56:08.611Z,9.2
2022-10-20T08:57:10.629Z,9.3
2022-10-20T08:58:14.580Z,9.3
2022-10-20T08:59:16.577Z,9.4
2022-10-20T09:00:18.624Z,9.5
2022-10-20T09:01:20.740Z,9.5
2022-10-20T09:02:22.588Z,9.6
2022-10-20T09:03:24.590Z,9.6
2022-10-20T09:04:26.578Z,9.7
2022-10-20T09:05:28.576Z,9.7
2022-10-20T09:06:30.632Z,9.8
2022-10-20T09:07:32.593Z,9.8
2022-10-20T09:08:34.657Z,9.8
2022-10-20T09:09:36.585Z,9.9
2022-10-20T09:10:38.625Z,9.9
2022-10-20T09:11:40.613Z,9.9
2022-10-20T09:12:42.596Z,9.9
2022-10-20T09:13:45.002Z,9.9
2022-10-20T09:14:46.593Z,9.9
2022-10-20T09:15:48.640Z,9.9
2022-10-20T09:17:00.413Z,9.9
2022-10-20T09:17:53.617Z,9.9
2022-10-20T09:18:56.616Z,9.9
2022-10-20T09:19:58.634Z,9.9
2022-10-20T09:21:00.603Z,10
2022-10-20T09:22:02.599Z,10
2022-10-20T09:23:16.365Z,10
2022-10-20T09:24:06.596Z,10.1
2022-10-20T09:25:08.622Z,10.1
2022-10-20T09:26:19.523Z,10.2
2022-10-20T09:27:13.625Z,10.2
2022-10-20T09:28:16.610Z,10.3
2022-10-20T09:29:18.594Z,10.3
2022-10-20T09:30:20.638Z,10.4
2022-10-20T09:31:22.608Z,10.5
2022-10-20T09:32:46.108Z,10.5
2022-10-20T09:33:26.617Z,10.6
2022-10-20T09:34:28.617Z,10.6
2022-10-20T09:35:30.683Z,10.7
2022-10-20T09:36:32.618Z,10.7
2022-10-20T09:37:34.627Z,10.8
2022-10-20T09:38:36.620Z,10.8
2022-10-20T09:39:39.569Z,10.9
2022-10-20T09:40:41.661Z,10.9
2022-10-20T09:41:43.619Z,10.9
2022-10-20T09:42:45.616Z,10.9
2022-10-20T09:43:48.614Z,10.9
2022-10-20T09:44:50.610Z,11
2022-10-20T09:45:52.648Z,11
2022-10-20T09:46:55.626Z,11.1
2022-10-20T09:47:57.625Z,11.1
2022-10-20T09:48:59.618Z,11.1
2022-10-20T09:50:01.648Z,11.2
2022-10-20T09:51:03.754Z,11.2
2022-10-20T09:52:05.620Z,11.3
2022-10-20T09:53:07.629Z,11.3
2022-10-20T09:54:10.634Z,11.3
2022-10-20T09:55:13.640Z,11.4
2022-10-20T09:56:16.656Z,11.4
2022-10-20T09:57:18.630Z,11.5
2022-10-20T09:58:20.627Z,11.5
2022-10-20T09:59:22.633Z,11.5
2022-10-20T10:00:36.378Z,11.5
2022-10-20T10:01:26.699Z,11.5
2022-10-20T10:02:28.626Z,11.6
2022-10-20T10:03:30.637Z,11.6
2022-10-20T10:04:32.627Z,11.6
2022-10-20T10:05:34.659Z,11.7
2022-10-20T10:06:36.658Z,11.7
2022-10-20T10:07:38.629Z,11.7
2022-10-20T10:08:40.712Z,11.7
2022-10-20T10:09:42.633Z,11.7
2022-10-20T10:10:44.659Z,11.7
2022-10-20T10:11:46.627Z,11.7
2022-10-20T10:12:48.639Z,11.8
2022-10-20T10:13:50.632Z,11.7
2022-10-20T10:14:52.641Z,11.7
2022-10-20T10:15:54.662Z,11.6
2022-10-20T10:16:56.631Z,11.6
2022-10-20T10:17:58.643Z,11.6
2022-10-20T10:19:00.745Z,11.6
2022-10-20T10:20:02.637Z,11.5
2022-10-20T10:21:04.687Z,11.5
2022-10-20T10:22:06.645Z,11.5
2022-10-20T10:23:08.645Z,11.5
2022-10-20T10:24:11.648Z,11.5
2022-10-20T10:25:13.729Z,11.5
2022-10-20T10:26:17.682Z,11.5
2022-10-20T10:27:20.648Z,11.5
2022-10-20T10:28:31.948Z,11.5
2022-10-20T10:29:24.669Z,11.4
2022-10-20T10:30:35.701Z,11.4
2022-10-20T10:31:35.735Z,11.4
2022-10-20T10:32:35.884Z,11.3
2022-10-20T10:33:35.713Z,11.3
2022-10-20T10:34:35.853Z,11.4
2022-10-20T10:35:37.653Z,11.3
2022-10-20T10:36:39.691Z,11.3
2022-10-20T10:37:42.107Z,11.3
2022-10-20T10:38:43.656Z,11.3
2022-10-20T10:39:45.663Z,11.3
2022-10-20T10:40:48.680Z,11.3
2022-10-20T10:41:50.723Z,11.3
2022-10-20T10:42:52.657Z,11.3
2022-10-20T10:43:54.690Z,11.4
2022-10-20T10:44:56.670Z,11.4
2022-10-20T10:45:59.671Z,11.4
2022-10-20T10:47:03.676Z,11.4
2022-10-20T10:48:05.671Z,11.4
2022-10-20T10:49:07.688Z,11.5
2022-10-20T10:50:09.723Z,11.5
2022-10-20T10:51:11.677Z,11.5
2022-10-20T10:52:13.676Z,11.5
2022-10-20T10:53:17.673Z,11.6
2022-10-20T10:54:19.668Z,11.6
2022-10-20T10:55:47.364Z,11.6
2022-10-20T10:56:23.700Z,11.6
2022-10-20T10:57:25.690Z,11.6
2022-10-20T10:58:27.700Z,11.6
2022-10-20T10:59:29.675Z,11.7
2022-10-20T11:00:31.805Z,11.7
2022-10-20T11:01:33.679Z,11.7
2022-10-20T11:02:36.064Z,11.7
2022-10-20T11:03:39.759Z,11.7
2022-10-20T11:05:41.708Z,11.9
2022-10-20T11:06:43.676Z,11.9
2022-10-20T11:07:45.674Z,12
2022-10-20T11:08:47.712Z,12.1
2022-10-20T11:09:50.703Z,12.1
2022-10-20T11:10:52.736Z,12.2
2022-10-20T11:11:55.746Z,12.3
2022-10-20T11:12:57.686Z,12.4
2022-10-20T11:14:02.638Z,12.5
2022-10-20T11:15:01.674Z,12.6
2022-10-20T11:16:03.692Z,12.7
2022-10-20T11:17:05.681Z,12.8
2022-10-20T11:18:07.686Z,12.9
2022-10-20T11:19:09.691Z,13
2022-10-20T11:20:11.689Z,13.1
2022-10-20T11:21:13.815Z,13.2
2022-10-20T11:22:17.692Z,13.3
2022-10-20T11:23:19.712Z,13.3
2022-10-20T11:24:22.708Z,13.4
2022-10-20T11:25:24.708Z,13.5
2022-10-20T11:26:29.053Z,13.5
2022-10-20T11:27:28.776Z,13.6
2022-10-20T11:28:30.693Z,13.7
2022-10-20T11:29:32.692Z,13.8
2022-10-20T11:30:34.695Z,13.8
2022-10-20T11:31:36.927Z,13.8
2022-10-20T11:32:38.709Z,13.8
2022-10-20T11:33:41.515Z,13.8
2022-10-20T11:34:43.704Z,13.8
2022-10-20T11:35:45.701Z,13.8
2022-10-20T11:36:47.725Z,13.8
2022-10-20T11:37:50.708Z,13.9
2022-10-20T11:38:52.705Z,14
2022-10-20T11:39:54.706Z,14.1
2022-10-20T11:40:56.715Z,14.3
2022-10-20T11:41:58.903Z,14.3
2022-10-20T11:43:03.227Z,14.4
2022-10-20T11:44:06.702Z,14.4
2022-10-20T11:45:09.742Z,14.5
2022-10-20T11:46:11.723Z,14.6
2022-10-20T11:47:14.565Z,14.7
2022-10-20T11:48:17.707Z,14.7
2022-10-20T11:49:19.699Z,14.7
2022-10-20T11:50:21.706Z,14.6
2022-10-20T11:51:23.718Z,14.5
2022-10-20T11:52:25.750Z,14.3
2022-10-20T11:53:27.716Z,14.1
2022-10-20T11:54:29.717Z,14
2022-10-20T11:55:31.722Z,13.8
2022-10-20T11:56:33.731Z,13.6
2022-10-20T11:57:36.718Z,13.3
2022-10-20T11:58:38.723Z,13.2
2022-10-20T11:59:40.714Z,13
2022-10-20T12:00:42.763Z,12.9
2022-10-20T12:01:44.805Z,12.8
2022-10-20T12:02:46.785Z,12.7
2022-10-20T12:03:48.837Z,12.6
2022-10-20T12:06:35.801Z,12.4
2022-10-20T12:07:35.789Z,12.4
2022-10-20T12:08:35.837Z,12.3
2022-10-20T12:09:35.825Z,12.3
2022-10-20T12:11:13.855Z,12.2
2022-10-20T12:12:15.855Z,12.2
2022-10-20T12:14:20.474Z,12.1
2022-10-20T12:15:22.410Z,12
2022-10-20T12:17:27.398Z,11.9
2022-10-20T12:18:29.415Z,11.9
2022-10-20T12:19:31.412Z,11.9
2022-10-20T12:20:33.447Z,11.9
2022-10-20T12:21:37.472Z,11.8
2022-10-20T12:22:53.519Z,11.8
2022-10-20T12:27:47.647Z,11.8
2022-10-20T12:27:48.102Z,11.7
2022-10-20T12:27:51.793Z,11.7
2022-10-20T12:28:54.347Z,11.6
2022-10-20T12:45:35.847Z,11.4
2022-10-20T12:47:24.737Z,11.4
2022-10-20T12:47:36.319Z,11.4
2022-10-20T12:53:05.193Z,11.4
2022-10-20T12:54:08.194Z,11.4
2022-10-20T12:57:57.518Z,11.4
2022-10-20T12:58:56.859Z,11.4
2022-10-20T13:00:43.245Z,11.4
2022-10-20T13:01:54.949Z,11.4
2022-10-20T13:02:35.821Z,11.4
2022-10-20T13:03:35.864Z,11.4
2022-10-20T13:06:13.439Z,11.5
2022-10-20T13:07:15.497Z,11.4
2022-10-20T13:13:04.443Z,11.4
2022-10-20T13:14:06.490Z,11.4
2022-10-20T13:25:21.834Z,11.4
2022-10-20T13:32:19.089Z,11.4
2022-10-20T13:33:34.464Z,11.4
2022-10-20T13:34:23.045Z,11.4
2022-10-20T13:35:25.032Z,11.4
2022-10-20T13:36:29.045Z,11.4
2022-10-20T13:37:31.074Z,11.4
2022-10-20T13:38:33.030Z,11.4
2022-10-20T13:39:36.154Z,11.4
2022-10-20T13:40:38.094Z,11.4
2022-10-20T13:41:41.602Z,11.3
2022-10-20T13:42:42.056Z,11.3
2022-10-20T13:43:44.037Z,11.3
2022-10-20T13:44:46.049Z,11.2
2022-10-20T13:45:48.043Z,11.2
2022-10-20T13:46:50.056Z,11.2
2022-10-20T13:47:52.075Z,11.2
2022-10-20T13:48:56.051Z,11.2
2022-10-20T13:50:00.047Z,11.2
2022-10-20T13:51:04.051Z,11.2
2022-10-20T13:52:06.049Z,11.2
2022-10-20T13:53:08.059Z,11.2
2022-10-20T13:54:11.034Z,11.1
2022-10-20T13:55:14.083Z,11.1
2022-10-20T13:56:17.445Z,11.1
2022-10-20T13:57:19.046Z,11.1
2022-10-20T13:58:21.049Z,11
2022-10-20T14:00:25.057Z,11
2022-10-20T14:01:27.204Z,11
2022-10-20T14:02:29.068Z,11
2022-10-20T14:03:31.052Z,11
2022-10-20T14:04:33.132Z,10.9
2022-10-20T14:05:35.060Z,10.9
2022-10-20T14:06:38.065Z,10.8
2022-10-20T14:07:40.072Z,10.7
2022-10-20T14:09:47.468Z,10.7
2022-10-20T14:10:46.075Z,10.7
2022-10-20T14:11:48.149Z,10.7
2022-10-20T14:12:50.050Z,10.6
2022-10-20T14:13:52.071Z,10.6
2022-10-20T14:14:59.289Z,10.6
2022-10-20T14:15:57.065Z,10.5
2022-10-20T14:16:59.113Z,10.5
2022-10-20T14:18:01.071Z,10.5
2022-10-20T14:19:03.072Z,10.5
2022-10-20T14:20:05.136Z,10.5
2022-10-20T14:21:08.069Z,10.4
2022-10-20T14:22:14.565Z,10.4
2022-10-20T14:23:35.872Z,10.4
2022-10-20T14:24:35.881Z,10.4
2022-10-20T14:25:35.921Z,10.3
2022-10-20T14:26:35.875Z,10.4
2022-10-20T14:27:36.382Z,10.3
2022-10-20T14:28:35.880Z,10.3
2022-10-20T14:29:35.903Z,10.3
2022-10-20T14:30:40.870Z,10.3
2022-10-20T14:31:35.898Z,10.3
2022-10-20T14:32:35.909Z,10.3
2022-10-20T14:33:37.554Z,10.3
2022-10-20T14:34:39.507Z,10.3
2022-10-20T14:35:41.502Z,10.2
2022-10-20T14:36:45.974Z,10.2
2022-10-20T14:39:35.946Z,10.1
2022-10-20T14:40:35.897Z,10.1
2022-10-20T14:41:35.893Z,10
2022-10-20T14:42:35.926Z,10
2022-10-20T14:43:35.906Z,10
2022-10-20T14:44:35.928Z,10
2022-10-20T14:45:35.885Z,10
2022-10-20T14:46:35.902Z,10
2022-10-20T14:47:36.231Z,10
2022-10-20T14:48:35.897Z,10
2022-10-20T14:49:35.894Z,10
2022-10-20T14:50:35.913Z,10
2022-10-20T14:51:35.926Z,10
2022-10-20T14:54:50.702Z,9.9
2022-10-20T14:56:54.709Z,9.9
2022-10-20T14:57:56.718Z,9.9
2022-10-20T14:58:58.738Z,9.9
2022-10-20T15:02:12.431Z,9.8
2022-10-20T15:03:14.504Z,9.7
2022-10-20T15:04:16.396Z,9.7
2022-10-20T15:05:18.379Z,9.7
2022-10-20T15:06:20.392Z,9.7
2022-10-20T15:07:22.460Z,9.7
2022-10-20T15:08:24.385Z,9.7
2022-10-20T15:09:26.414Z,9.7
2022-10-20T15:10:28.373Z,9.7
2022-10-20T15:11:30.382Z,9.7
2022-10-20T15:12:32.391Z,9.7
2022-10-20T15:13:34.380Z,9.6
2022-10-20T15:14:36.415Z,9.7
2022-10-20T15:15:38.385Z,9.6
2022-10-20T15:16:40.378Z,9.7
2022-10-20T15:17:42.380Z,9.7
2022-10-20T15:18:44.415Z,9.6
2022-10-20T15:19:46.486Z,9.6
2022-10-20T15:20:48.393Z,9.6
2022-10-20T15:21:51.383Z,9.7
2022-10-20T15:22:55.328Z,9.7
2022-10-20T15:23:55.386Z,9.7
2022-10-20T15:24:57.417Z,9.7
2022-10-20T15:25:59.378Z,9.6
2022-10-20T15:27:02.374Z,9.6
2022-10-20T15:28:04.378Z,9.6
2022-10-20T15:29:06.397Z,9.6
2022-10-20T15:30:08.422Z,9.6
2022-10-20T15:31:10.390Z,9.5
2022-10-20T15:32:12.401Z,9.5
2022-10-20T15:33:14.407Z,9.5
2022-10-20T15:34:17.445Z,9.4
2022-10-20T15:35:19.387Z,9.4
2022-10-20T15:36:21.395Z,9.4
2022-10-20T15:37:23.391Z,9.4